createdAt,value
2024-03-13T00:14:15.957Z,44.30
2024-03-13T00:29:16.235Z,43.60
2024-03-13T00:44:16.498Z,42.80
2024-03-13T00:59:18.203Z,42.20
2024-03-13T01:14:17.459Z,41.60
2024-03-13T01:29:17.515Z,41.00
2024-03-13T01:44:17.752Z,41.00
2024-03-13T01:59:18.155Z,40.90
2024-03-13T02:14:18.424Z,40.90
2024-03-13T02:29:18.819Z,41.10
2024-03-13T02:44:19.050Z,41.00
2024-03-13T02:59:19.581Z,41.00
2024-03-13T03:14:20.853Z,40.60
2024-03-13T03:29:20.097Z,40.70
2024-03-13T03:44:20.321Z,40.60
2024-03-13T03:59:20.803Z,40.80
2024-03-13T04:14:21.014Z,40.60
2024-03-13T04:29:35.123Z,40.60
2024-03-13T04:44:21.736Z,41.10
2024-03-13T04:59:21.945Z,41.00
2024-03-13T05:14:22.297Z,40.90
2024-03-13T05:29:23.644Z,41.50
2024-03-13T05:44:22.813Z,41.40
2024-03-13T05:59:23.117Z,41.50
2024-03-13T06:14:23.581Z,41.30
2024-03-13T06:29:23.803Z,41.50
2024-03-13T06:44:24.111Z,41.70
2024-03-13T06:59:24.443Z,41.50
2024-03-13T07:14:25.017Z,42.00
2024-03-13T07:29:26.442Z,41.60
2024-03-13T07:44:26.664Z,41.60
2024-03-13T09:14:27.309Z,41.90
2024-03-13T09:29:27.544Z,41.80
2024-03-13T09:44:27.945Z,41.80
2024-03-13T09:59:32.499Z,41.00
2024-03-13T10:14:28.506Z,40.90
2024-03-13T10:29:36.116Z,41.00
2024-03-13T10:44:29.165Z,41.20
2024-03-13T10:59:29.457Z,40.80
2024-03-13T11:14:29.782Z,40.80
2024-03-13T11:29:30.098Z,40.90
2024-03-13T11:44:30.528Z,41.20
2024-03-13T11:59:30.764Z,41.30
2024-03-13T12:14:33.522Z,41.70
2024-03-13T12:29:31.355Z,41.60
2024-03-13T12:44:31.686Z,41.80
2024-03-13T12:59:32.121Z,40.90
2024-03-13T13:14:32.592Z,41.40
2024-03-13T13:29:34.366Z,41.00
2024-03-13T13:44:32.897Z,40.10
2024-03-13T13:59:33.235Z,40.60
2024-03-13T14:14:33.603Z,40.10
2024-03-13T14:29:33.890Z,40.20
2024-03-13T14:44:34.260Z,40.20
2024-03-13T14:59:34.518Z,40.00
2024-03-13T15:14:34.929Z,39.70
2024-03-13T15:29:39.335Z,39.60
2024-03-13T15:44:35.425Z,39.70
2024-03-13T15:59:35.701Z,39.60
2024-03-13T16:14:36.043Z,40.00
2024-03-13T16:29:36.365Z,40.00
2024-03-13T16:44:36.765Z,39.90
2024-03-13T16:59:37.019Z,40.10
2024-03-13T17:14:37.301Z,40.20
2024-03-13T17:29:37.680Z,40.00
2024-03-13T17:44:38.166Z,40.50
2024-03-13T17:59:38.487Z,40.10
2024-03-13T18:14:38.617Z,40.40
2024-03-13T18:29:39.118Z,41.30
2024-03-13T18:44:39.409Z,40.50
2024-03-13T18:59:39.590Z,40.60
2024-03-13T19:14:40.020Z,40.80
2024-03-13T19:29:40.271Z,40.90
2024-03-13T19:44:40.700Z,41.00
2024-03-13T19:59:43.463Z,41.10
2024-03-13T20:14:41.574Z,41.00
2024-03-13T20:29:41.662Z,41.40
2024-03-13T20:44:42.126Z,41.10
2024-03-13T21:14:42.568Z,41.30
2024-03-13T21:29:51.695Z,41.20
2024-03-13T21:45:26.721Z,41.20
2024-03-13T22:00:06.851Z,41.40
2024-03-13T22:30:14.306Z,41.20
2024-03-13T22:45:16.671Z,41.20
2024-03-13T23:00:14.572Z,41.50
2024-03-13T23:15:20.989Z,41.50
2024-03-13T23:30:21.487Z,41.60
2024-03-13T23:45:24.371Z,41.70
